Terminal Aerodrome Forecast
Issued by NWS Amarillo, TX

Home | Current Version | Previous Version | Text Only | Print | Product List | Glossary On
Versions: 1 2 3 4 5 6 7 8 9 10 11 12 13 14 15 16 17 18 19 20 21 22 23 24 25 26 27
000
FTUS44 KAMA 191100
TAFDHT
TAF
KDHT 191120Z 1912/2012 VRB05KT 3SM BR OVC006
      TEMPO 1912/1914 OVC004
     FM191600 30004KT 4SM BR SCT010
     FM191800 25005KT P6SM SCT040
     FM200900 21004KT 6SM BR SCT010=

USA.gov is the U.S. government's official web portal to all federal, state and local government web resources and services.